Terminal Aerodrome Forecast
Issued by NWS

Home | Current Version | Previous Version | Text Only | Print | Product List | Glossary On
Versions: 1 2 3 4 5 6 7 8 9 10 11 12 13 14 15
000
FTUS44 KEPZ 260500 RRA
TAFTCS
TAF
KTCS 260543Z 2606/2706 22011KT P6SM FEW060 BKN100
     FM260800 25009KT P6SM VCSH SCT025 BKN050 BKN090
     FM261200 26011KT P6SM -SHRA BKN025 OVC060
     FM261800 27014G22KT P6SM SCT030 BKN200
     FM262300 29006KT P6SM SCT200=

USA.gov is the U.S. government's official web portal to all federal, state and local government web resources and services.